Weather at Aeródromo de Valverde del Camino

Public forecast

Using degrees Celsius for public forecast. Weather courtesy of forecast.io.

Closest aviation weather report (METAR) to Aeródromo de Valverde del Camino

Closest report is Base Aérea de El Copero, 35.5 nm (65.7 km) ESE.

2024/07/25 06:30 (retrieved 36 minutes ago)

LEEC 250630Z 00000KT CAVOK 22/16 Q1011

Closest aviation forecast (TAF) to Aeródromo de Valverde del Camino

Closest forecast is Faro Airport, 67.2 nm (124.4 km) WSW.

2024/07/25 06:18 (retrieved 48 minutes ago)

TAF LPFR 250500Z 2506/2606 29005KT CAVOK BECMG 2509/2511 26015KT BECMG 2518/2520 30012KT